CheckWX is a tool to help pilots better visualize weather data.  It is not intended as a substitute for an official pre-flight weather briefing.

13:54:58 UTC

KHZL METAR
Hazleton Regional Airport
Hazleton, Pennsylvania, USA
Current

19 mins ago

KHZL 261336Z AUTO 12008G18KT 090V150 10SM OVC004 11/10 A2963 RMK AO2 P0004
Observed
Apr-26 @ 13:36 UTC
Wind
  • 120° at 8 KTS
  • Gusting to 18 KTS
Visibility
10 SM
Flight Rules
LIFR
Cloud Levels
  • Overcast at 400' AGL
Temperature
11°C / 52°F
Dewpoint
10°C / 50°F
Humidity
94%
Altimeter
29.63" Hg
Pressure
1003.42 hPa
Current Rain
0.04"
Previous

39 mins ago

KHZL 261316Z AUTO 12008G15KT 100V160 4SM RA OVC004 11/10 A2965 RMK AO2 PNO
Observed
Apr-26 @ 13:16 UTC
Wind
  • 120° at 8 KTS
  • Gusting to 15 KTS
Visibility
4 SM
Flight Rules
LIFR
Conditions
Rain
Cloud Levels
  • Overcast at 400' AGL
Temperature
11°C / 52°F
Dewpoint
10°C / 50°F
Humidity
94%
Altimeter
29.65" Hg
Pressure
1004.02 hPa
Previous

60 mins ago

KHZL 261255Z AUTO 12009G16KT 090V170 7SM -RA OVC004 11/10 A2965 RMK AO2 LTG DSNT SW P0002
Observed
Apr-26 @ 12:55 UTC
Wind
  • 120° at 9 KTS
  • Gusting to 16 KTS
Visibility
7 SM
Flight Rules
LIFR
Conditions
Light Rain
Cloud Levels
  • Overcast at 400' AGL
Temperature
11°C / 52°F
Dewpoint
10°C / 50°F
Humidity
94%
Altimeter
29.65" Hg
Pressure
1004.02 hPa
Current Rain
0.02"